Flight Track Log - Related Links

Times and Time Zones

All times are in EDT time to prevent confusion due to time zone crossing. See the N724AE flight status page for this flight to view local times or setup timezone preferences in your user account.

Time Position Orientation Groundspeed Altitude Reporting Facility
EDT Latitude Longitude Course Direction KTS MPH feet Rate Location/Type
Thu 04:26:43 PM 32.9333 -97.0333 North 190 219 2,300  Level Dallas / Fort Worth TRACON
Thu 04:27:43 PM 33.0000 -97.0333 360° North 236 272 4,700 2,293 Climbing Dallas / Fort Worth TRACON
Thu 04:28:00 PM 32.8694 -96.8000 North  Level FlightAware Approximate
Thu 04:29:00 PM 32.9953 -96.8000 North  Level FlightAware Approximate
Thu 04:29:20 PM 33.1083 -97.0117 10° North 261 300 8,300  Level Fort Worth Center
Thu 04:30:00 PM 33.1211 -96.8045 356° North  Level FlightAware Approximate
Thu 04:30:20 PM 33.1894 -96.9642 26° Northeast 278 320 10,700  Level Fort Worth Center
Thu 04:31:00 PM 33.2467 -96.8150 356° North  Level FlightAware Approximate
Thu 04:31:20 PM 33.2603 -96.9192 28° Northeast 300 345 12,200  Level Fort Worth Center
Thu 04:32:00 PM 33.3726 -96.8167 North  Level FlightAware Approximate
Thu 04:32:20 PM 33.3539 -96.8564 29° Northeast 332 382 13,900  Level Fort Worth Center
Thu 04:33:20 PM 33.4311 -96.8011 31° Northeast 342 394 15,300 1,550 Climbing Fort Worth Center
Thu 04:34:20 PM 33.5267 -96.7331 31° Northeast 353 406 17,000 1,550 Climbing Fort Worth Center
Thu 04:35:20 PM 33.6056 -96.6778 30° Northeast 360 414 18,400 1,550 Climbing Fort Worth Center
Thu 04:36:20 PM 33.7117 -96.6044 30° Northeast 371 427 20,100 1,650 Climbing Fort Worth Center
Thu 04:37:20 PM 33.8031 -96.5411 30° Northeast 383 441 21,700 1,550 Climbing Fort Worth Center
Thu 04:38:20 PM 33.8986 -96.4700 32° Northeast 388 447 23,200 1,550 Climbing Fort Worth Center
Thu 04:39:20 PM 33.9919 -96.4064 29° Northeast 388 447 24,800 1,600 Climbing Fort Worth Center
Thu 04:40:20 PM 34.0875 -96.3375 31° Northeast 388 447 26,400 1,500 Climbing Fort Worth Center
Thu 04:41:20 PM 34.1744 -96.2739 31° Northeast 378 435 27,800 1,500 Climbing Fort Worth Center
Thu 04:42:20 PM 34.2636 -96.2072 32° Northeast 378 435 29,400 1,550 Climbing Fort Worth Center
Thu 04:43:20 PM 34.3547 -96.1406 31° Northeast 383 441 30,900 1,500 Climbing Fort Worth Center
Thu 04:44:20 PM 34.4458 -96.0739 31° Northeast 383 441 32,400 1,500 Climbing Fort Worth Center
Thu 04:45:20 PM 34.5369 -96.0094 30° Northeast 383 441 33,900 1,300 Climbing Fort Worth Center
Thu 04:46:20 PM 34.6300 -95.9397 32° Northeast 383 441 35,000 550 Climbing Fort Worth Center
Thu 04:47:20 PM 34.7189 -95.8625 36° Northeast 383 441 35,000 300 Level Fort Worth Center
Thu 04:48:20 PM 34.8092 -95.7622 42° Northeast 411 473 35,600 750 Climbing Fort Worth Center
Thu 04:49:20 PM 34.8936 -95.6719 41° Northeast 437 503 36,500 700 Climbing Fort Worth Center
Thu 04:50:20 PM 34.9861 -95.5711 42° Northeast 442 509 37,000 250 Climbing Fort Worth Center
Thu 04:51:20 PM 35.0844 -95.4575 43° Northeast 442 509 37,000  Level Fort Worth Center
Thu 04:52:20 PM 35.1789 -95.3561 41° Northeast 442 509 37,000  Level Fort Worth Center
Thu 04:54:44 PM 35.3964 -95.1150 42° Northeast 448 516 37,000  Level Memphis Center
Thu 04:55:44 PM 35.4903 -95.0056 43° Northeast 448 516 37,000  Level Memphis Center
Thu 04:56:44 PM 35.5836 -94.9033 42° Northeast 448 516 37,000  Level Memphis Center
Thu 04:57:44 PM 35.6772 -94.7936 44° Northeast 453 521 37,000  Level Memphis Center
Thu 04:58:44 PM 35.7706 -94.6911 42° Northeast 453 521 37,000  Level Memphis Center
Thu 04:59:44 PM 35.8617 -94.5858 43° Northeast 453 521 37,000  Level Memphis Center
Thu 05:00:44 PM 35.9550 -94.4778 43° Northeast 453 521 37,000  Level Memphis Center
Thu 05:01:44 PM 36.0503 -94.3697 43° Northeast 458 527 37,000  Level Memphis Center
Thu 05:02:44 PM 36.1414 -94.2636 43° Northeast 458 527 37,000  Level Memphis Center
Thu 05:03:44 PM 36.2383 -94.1550 42° Northeast 458 527 37,000  Level Memphis Center
Thu 05:04:44 PM 36.3314 -94.0433 44° Northeast 458 527 37,000  Level Memphis Center
Thu 05:05:22 PM 36.3875 -93.9792 43° Northeast 460 529 37,000  Level Kansas City Center
Thu 05:06:23 PM 36.4811 -93.8700 43° Northeast 460 529 37,000  Level Kansas City Center
Thu 05:07:26 PM 36.5864 -93.7478 43° Northeast 457 526 37,000  Level Kansas City Center
Thu 05:08:27 PM 36.6794 -93.6406 43° Northeast 456 525 37,000  Level Kansas City Center
Thu 05:09:30 PM 36.7700 -93.5325 44° Northeast 453 521 37,000  Level Kansas City Center
Thu 05:10:31 PM 36.8608 -93.4264 43° Northeast 449 517 37,000  Level Kansas City Center
Thu 05:11:35 PM 36.9508 -93.3206 43° Northeast 447 514 37,000  Level Kansas City Center
Thu 05:12:36 PM 37.0422 -93.2117 44° Northeast 449 517 37,000  Level Kansas City Center
Thu 05:13:37 PM 37.1528 -93.0808 43° Northeast 452 520 37,000  Level Kansas City Center
Thu 05:14:41 PM 37.2425 -92.9719 44° Northeast 450 518 37,000  Level Kansas City Center
Thu 05:15:42 PM 37.3333 -92.8622 44° Northeast 451 519 37,000  Level Kansas City Center
Thu 05:16:45 PM 37.4250 -92.7497 44° Northeast 457 526 37,000  Level Kansas City Center
Thu 05:17:46 PM 37.5175 -92.6372 44° Northeast 461 531 37,000  Level Kansas City Center
Thu 05:18:49 PM 37.6108 -92.5258 43° Northeast 461 531 37,000  Level Kansas City Center
Thu 05:19:50 PM 37.7144 -92.3975 44° Northeast 466 536 37,000  Level Kansas City Center
Thu 05:20:53 PM 37.8089 -92.2831 44° Northeast 472 543 37,000  Level Kansas City Center
Thu 05:21:53 PM 37.9025 -92.1636 45° Northeast 481 554 37,000  Level Kansas City Center
Thu 05:22:57 PM 38.0036 -92.0419 43° Northeast 483 556 37,000  Level Kansas City Center
Thu 05:23:57 PM 38.0994 -91.9228 44° Northeast 484 557 37,000  Level Kansas City Center
Thu 05:25:01 PM 38.2153 -91.7789 44° Northeast 485 558 37,000  Level Kansas City Center
Thu 05:26:03 PM 38.3117 -91.6578 45° Northeast 487 560 37,000 -144 Level Kansas City Center
Thu 05:27:06 PM 38.4094 -91.5358 44° Northeast 489 563 36,700 -780 Descending Kansas City Center
Thu 05:28:06 PM 38.5094 -91.4094 45° Northeast 500 575 35,400 -1,279 Descending Kansas City Center
Thu 05:29:08 PM 38.6056 -91.2897 44° Northeast 504 580 34,100 -1,344 Descending Kansas City Center
Thu 05:30:11 PM 38.7056 -91.1625 45° Northeast 505 581 32,600 -1,839 Descending Kansas City Center
Thu 05:31:12 PM 38.8261 -91.0092 45° Northeast 507 583 30,300 -2,064 Descending Kansas City Center
Thu 05:32:16 PM 38.9289 -90.8778 45° Northeast 513 590 28,300 -1,872 Descending Kansas City Center
Thu 05:33:17 PM 39.0328 -90.7442 45° Northeast 521 600 26,400 -1,918 Descending Kansas City Center
Thu 05:34:18 PM 39.1375 -90.6081 45° Northeast 529 609 24,400 -1,306 Descending Kansas City Center
Thu 05:35:21 PM 39.2400 -90.4744 45° Northeast 525 604 23,700 -992 Descending Kansas City Center
Thu 05:36:25 PM 39.3367 -90.3475 45° Northeast 503 579 22,300 -1,403 Descending Kansas City Center
Thu 05:37:25 PM 39.4336 -90.2217 45° Northeast 496 571 20,800 -1,884 Descending Kansas City Center
Thu 05:38:26 PM 39.5258 -90.0994 46° Northeast 482 555 18,500 -2,592 Descending Kansas City Center
Thu 05:39:30 PM 39.6306 -89.9697 44° Northeast 446 513 15,400 -2,688 Descending Kansas City Center
Thu 05:40:31 PM 39.6819 -89.8467 61° Northeast 400 460 12,900 -2,419 Descending Kansas City Center
Thu 05:41:34 PM 39.7261 -89.7203 66° East 383 441 10,400 -1,839 Descending Kansas City Center
Thu 05:42:35 PM 39.7681 -89.6097 64° Northeast 356 410 9,100 -1,377 Descending Kansas City Center
Thu 05:43:36 PM 39.8322 -89.5403 40° Northeast 312 359 7,600 -1,584 Descending Kansas City Center
Thu 05:44:40 PM 39.8956 -89.4722 39° Northeast 298 343 5,800 -1,968 Descending Kansas City Center
Thu 05:45:41 PM 39.9711 -89.4264 25° Northeast 281 323 3,500 -1,344 Descending Kansas City Center
Thu 05:46:45 PM 39.9800 -89.4947 280° West 227 261 3,000 -240 Descending Kansas City Center
Thu 05:47:46 PM 39.9567 -89.5497 241° Southwest 193 222 3,000  Level Kansas City Center

Login

Don't have an account? Register now (free) for customized features, flight alerts, and more!